createdAt,value
2023-02-28T00:00:40.136Z,56.48
2023-02-28T00:03:18.783Z,56.65
2023-02-28T00:05:48.964Z,56.49
2023-02-28T00:08:24.886Z,56.63
2023-02-28T00:10:52.421Z,56.77
2023-02-28T00:13:19.598Z,56.77
2023-02-28T00:16:10.704Z,57.00
2023-02-28T00:18:37.965Z,56.83
2023-02-28T00:21:08.298Z,56.58
2023-02-28T00:23:36.512Z,56.76
2023-02-28T00:26:04.167Z,56.85
2023-02-28T00:28:31.690Z,56.88
2023-02-28T00:31:19.178Z,57.20
2023-02-28T00:33:56.628Z,57.19
2023-02-28T00:36:24.097Z,57.11
2023-02-28T00:38:51.257Z,56.89
2023-02-28T00:41:18.696Z,57.21
2023-02-28T00:43:48.715Z,57.49
2023-02-28T00:46:15.899Z,57.33
2023-02-28T00:48:43.515Z,57.71
2023-02-28T00:51:31.293Z,57.80
2023-02-28T00:54:19.269Z,58.10
2023-02-28T00:56:55.960Z,57.80
2023-02-28T00:59:36.198Z,57.77
2023-02-28T01:02:07.366Z,57.74
2023-02-28T01:04:45.112Z,57.48
2023-02-28T01:07:12.984Z,57.81
2023-02-28T01:10:00.343Z,57.75
2023-02-28T01:12:47.790Z,57.48
2023-02-28T01:15:16.943Z,57.46
2023-02-28T01:17:45.911Z,57.43
2023-02-28T01:20:33.430Z,57.63
2023-02-28T01:23:20.898Z,57.49
2023-02-28T01:25:51.688Z,57.37
2023-02-28T01:28:39.010Z,57.39
2023-02-28T01:31:10.376Z,57.22
2023-02-28T01:33:50.269Z,57.22
2023-02-28T01:36:28.863Z,57.42
2023-02-28T01:38:59.037Z,57.84
2023-02-28T01:41:37.036Z,58.35
2023-02-28T01:45:00.311Z,58.45
2023-02-28T01:47:36.429Z,58.53
2023-02-28T01:50:27.611Z,58.61
2023-02-28T01:53:19.933Z,58.48
2023-02-28T01:55:51.866Z,58.34
2023-02-28T01:58:40.210Z,58.49
2023-02-28T02:01:07.693Z,58.71
2023-02-28T02:03:58.600Z,58.82
2023-02-28T02:06:35.440Z,58.83
2023-02-28T02:09:04.088Z,58.91
2023-02-28T02:11:47.556Z,59.17
2023-02-28T02:15:01.400Z,59.09
2023-02-28T02:17:55.148Z,58.48
2023-02-28T02:21:16.207Z,58.82
2023-02-28T02:24:38.365Z,59.02
2023-02-28T02:27:41.950Z,59.31
2023-02-28T02:30:50.003Z,59.12
2023-02-28T02:33:40.322Z,58.92
2023-02-28T02:36:16.842Z,58.70
2023-02-28T02:39:01.559Z,58.77
2023-02-28T02:41:47.301Z,58.57
2023-02-28T02:44:42.486Z,58.62
2023-02-28T02:47:13.303Z,59.11
2023-02-28T02:49:43.121Z,59.34
2023-02-28T02:52:36.936Z,59.41
2023-02-28T02:55:26.029Z,59.44
2023-02-28T02:57:57.127Z,59.56
2023-02-28T03:00:28.497Z,59.91
2023-02-28T03:02:57.187Z,59.82
2023-02-28T03:05:32.697Z,60.23
2023-02-28T03:08:19.324Z,60.39
2023-02-28T03:11:10.214Z,60.60
2023-02-28T03:14:17.229Z,60.68
2023-02-28T03:16:54.077Z,60.78
2023-02-28T03:19:55.074Z,60.95
2023-02-28T03:22:53.701Z,61.16
2023-02-28T03:25:29.757Z,61.33
2023-02-28T03:28:04.222Z,61.57
2023-02-28T03:30:58.797Z,61.71
2023-02-28T03:33:29.960Z,61.50
2023-02-28T03:36:13.594Z,61.53
2023-02-28T03:38:44.637Z,61.74
2023-02-28T03:41:38.076Z,61.57
2023-02-28T03:44:18.536Z,61.52
2023-02-28T03:46:51.294Z,61.45
2023-02-28T03:49:44.596Z,61.79
2023-02-28T03:52:25.194Z,61.72
2023-02-28T03:54:57.903Z,61.90
2023-02-28T03:57:34.503Z,61.97
2023-02-28T04:00:10.773Z,62.31
2023-02-28T04:02:53.832Z,62.20
2023-02-28T04:05:26.464Z,62.30
2023-02-28T04:08:13.839Z,62.54
2023-02-28T04:10:41.990Z,62.49
2023-02-28T04:13:09.171Z,62.41
2023-02-28T04:15:43.844Z,62.57
2023-02-28T04:18:13.556Z,62.83
2023-02-28T04:20:40.801Z,62.94
2023-02-28T04:23:10.916Z,62.65
2023-02-28T04:26:01.612Z,62.90
2023-02-28T04:28:47.923Z,63.27
2023-02-28T04:31:23.826Z,63.10
2023-02-28T04:34:11.406Z,63.54
2023-02-28T04:36:59.620Z,63.25
2023-02-28T04:39:37.154Z,63.41
2023-02-28T04:42:07.508Z,63.89
2023-02-28T04:44:55.000Z,64.10
2023-02-28T04:47:31.664Z,63.87
2023-02-28T04:49:59.394Z,63.79
2023-02-28T04:52:31.007Z,63.71
2023-02-28T04:55:10.217Z,63.82
2023-02-28T04:57:38.203Z,63.96
2023-02-28T05:00:17.966Z,64.15
2023-02-28T05:03:05.339Z,64.08
2023-02-28T05:05:33.845Z,64.35
2023-02-28T05:08:03.837Z,64.01
2023-02-28T05:10:30.925Z,64.05
2023-02-28T05:13:07.240Z,64.13
2023-02-28T05:15:55.211Z,64.21
2023-02-28T05:18:43.417Z,64.40
2023-02-28T05:21:30.824Z,64.52
2023-02-28T05:24:14.516Z,64.45
2023-02-28T05:26:43.739Z,64.52
2023-02-28T05:29:16.382Z,64.29
2023-02-28T05:32:03.767Z,64.51
2023-02-28T05:34:34.607Z,64.57
2023-02-28T05:37:01.826Z,64.47
2023-02-28T05:39:49.419Z,64.66
2023-02-28T05:42:35.517Z,64.27
2023-02-28T05:45:04.603Z,64.39
2023-02-28T05:47:35.087Z,64.27
2023-02-28T05:50:05.179Z,64.50
2023-02-28T05:52:40.426Z,64.43
2023-02-28T05:55:27.970Z,64.49
2023-02-28T05:58:06.441Z,64.26
2023-02-28T06:00:41.494Z,64.18
2023-02-28T06:03:19.994Z,64.02
2023-02-28T06:06:05.943Z,63.87
2023-02-28T06:08:36.428Z,63.29
2023-02-28T06:11:06.830Z,63.24
2023-02-28T06:13:44.409Z,62.91
2023-02-28T06:16:33.365Z,62.82
2023-02-28T06:19:04.258Z,62.73
2023-02-28T06:21:32.421Z,62.08
2023-02-28T06:24:20.250Z,60.65
2023-02-28T06:26:52.430Z,59.40
2023-02-28T06:29:19.877Z,59.11
2023-02-28T06:31:47.573Z,58.22
2023-02-28T06:34:22.342Z,57.17
2023-02-28T06:36:54.751Z,57.06
2023-02-28T06:39:22.870Z,55.92
2023-02-28T06:41:55.758Z,55.26
2023-02-28T06:44:23.580Z,53.59
2023-02-28T06:46:51.240Z,52.18
2023-02-28T06:49:27.315Z,50.75
2023-02-28T06:51:54.837Z,50.09
2023-02-28T06:54:21.969Z,49.22
2023-02-28T06:56:50.087Z,47.81
2023-02-28T06:59:17.337Z,46.39
2023-02-28T07:01:44.795Z,44.92
2023-02-28T07:04:12.179Z,43.69
2023-02-28T07:06:39.725Z,42.52
2023-02-28T07:09:07.887Z,41.52
2023-02-28T07:11:35.483Z,40.65
2023-02-28T07:14:02.996Z,39.84
2023-02-28T07:16:30.190Z,38.93
2023-02-28T07:18:57.601Z,37.95
2023-02-28T07:21:25.049Z,36.99
2023-02-28T07:23:52.813Z,35.59
2023-02-28T07:26:22.339Z,34.61
2023-02-28T07:28:50.577Z,34.01
2023-02-28T07:31:19.549Z,33.51
2023-02-28T07:33:46.977Z,32.69
2023-02-28T07:36:16.591Z,31.88
2023-02-28T07:38:46.314Z,30.66
2023-02-28T07:41:15.284Z,30.03
2023-02-28T07:43:42.290Z,29.62
2023-02-28T07:46:11.923Z,29.03
2023-02-28T07:48:39.867Z,28.41
2023-02-28T07:51:07.471Z,28.18
2023-02-28T07:53:34.501Z,27.61
2023-02-28T07:56:02.435Z,27.53
2023-02-28T07:58:31.872Z,27.12
2023-02-28T08:00:59.358Z,26.03
2023-02-28T08:03:27.322Z,25.28
2023-02-28T08:05:55.029Z,24.97
2023-02-28T08:08:22.297Z,24.34
2023-02-28T08:10:49.705Z,24.57
2023-02-28T08:13:16.991Z,24.20
2023-02-28T08:15:47.116Z,24.52
2023-02-28T08:18:14.568Z,24.82
2023-02-28T08:20:41.623Z,24.90
2023-02-28T08:23:08.802Z,24.63
2023-02-28T08:25:36.360Z,24.68
2023-02-28T08:28:03.477Z,24.79
2023-02-28T08:30:30.528Z,24.66
2023-02-28T08:32:57.929Z,24.22
2023-02-28T08:35:25.123Z,23.98
2023-02-28T08:37:52.813Z,23.44
2023-02-28T08:40:20.576Z,23.01
2023-02-28T08:42:48.324Z,22.98
2023-02-28T08:45:16.762Z,23.07
2023-02-28T08:47:44.034Z,22.92
2023-02-28T08:50:13.800Z,23.07
2023-02-28T08:52:41.559Z,22.36
2023-02-28T08:55:11.368Z,22.56
2023-02-28T08:57:38.911Z,22.59
2023-02-28T09:00:08.477Z,22.30
2023-02-28T09:02:35.980Z,22.26
2023-02-28T09:05:04.233Z,22.79
2023-02-28T09:07:31.590Z,22.72
2023-02-28T09:09:59.414Z,22.90
2023-02-28T09:12:27.956Z,23.12
2023-02-28T09:14:56.323Z,23.14
2023-02-28T09:17:24.490Z,23.51
2023-02-28T09:19:58.449Z,23.73
2023-02-28T09:22:26.009Z,23.53
2023-02-28T09:24:53.093Z,23.27
2023-02-28T09:27:20.531Z,23.50
2023-02-28T09:29:47.836Z,23.63
2023-02-28T09:32:15.035Z,23.76
2023-02-28T09:34:42.685Z,24.09
2023-02-28T09:37:09.922Z,23.46
2023-02-28T09:39:37.020Z,23.45
2023-02-28T09:42:06.389Z,23.37
2023-02-28T09:44:37.546Z,22.67
2023-02-28T09:47:13.789Z,23.28
2023-02-28T09:49:47.338Z,23.09
2023-02-28T09:52:20.730Z,23.31
2023-02-28T09:54:48.467Z,23.16
2023-02-28T09:57:26.154Z,23.02
2023-02-28T10:00:05.919Z,23.53
2023-02-28T10:03:04.175Z,23.48
2023-02-28T10:05:35.912Z,23.67
2023-02-28T10:08:09.856Z,23.72
2023-02-28T10:10:42.335Z,23.59
2023-02-28T10:13:18.074Z,22.73
2023-02-28T10:15:47.363Z,23.07
2023-02-28T10:18:18.976Z,23.97
2023-02-28T10:20:47.580Z,24.01
2023-02-28T10:23:19.561Z,24.00
2023-02-28T10:25:52.882Z,23.65
2023-02-28T10:28:21.194Z,23.97
2023-02-28T10:30:50.076Z,24.19
2023-02-28T10:33:25.385Z,24.03
2023-02-28T10:35:53.257Z,23.74
2023-02-28T10:38:23.751Z,23.26
2023-02-28T10:40:51.127Z,23.64
2023-02-28T10:43:25.726Z,23.88
2023-02-28T10:46:16.594Z,24.44
2023-02-28T10:48:46.822Z,24.74
2023-02-28T10:51:15.428Z,24.66
2023-02-28T10:54:01.205Z,24.86
2023-02-28T10:56:31.075Z,24.90
2023-02-28T10:59:01.013Z,25.02
2023-02-28T11:01:44.519Z,25.52
2023-02-28T11:04:41.303Z,25.19
2023-02-28T11:07:22.974Z,25.01
2023-02-28T11:10:02.096Z,25.59
2023-02-28T11:12:33.997Z,25.95
2023-02-28T11:15:27.302Z,26.48
2023-02-28T11:18:01.131Z,26.59
2023-02-28T11:20:31.125Z,26.96
2023-02-28T11:22:59.685Z,26.97
2023-02-28T11:25:29.032Z,26.65
2023-02-28T11:27:58.897Z,26.49
2023-02-28T11:30:34.660Z,26.27
2023-02-28T11:33:02.984Z,26.68
2023-02-28T11:35:37.044Z,26.56
2023-02-28T11:38:07.402Z,27.20
2023-02-28T11:40:43.877Z,27.34
2023-02-28T11:43:29.556Z,27.28
2023-02-28T11:46:15.049Z,27.02
2023-02-28T11:48:54.101Z,27.23
2023-02-28T11:51:29.962Z,27.22
2023-02-28T11:54:16.342Z,27.44
2023-02-28T11:56:54.527Z,27.66
2023-02-28T11:59:44.839Z,27.59
2023-02-28T12:02:26.838Z,28.02
2023-02-28T12:05:04.262Z,28.18
2023-02-28T12:07:41.388Z,27.79
2023-02-28T12:10:21.143Z,28.08
2023-02-28T12:12:59.489Z,28.37
2023-02-28T12:15:46.866Z,28.81
2023-02-28T12:18:34.134Z,29.07
2023-02-28T12:21:22.486Z,29.11
2023-02-28T12:24:27.210Z,29.57
2023-02-28T12:26:56.349Z,29.51
2023-02-28T12:29:29.928Z,29.35
2023-02-28T12:32:02.305Z,28.94
2023-02-28T12:34:37.616Z,29.07
2023-02-28T12:37:27.039Z,29.44
2023-02-28T12:40:12.100Z,29.91
2023-02-28T12:42:45.286Z,30.19
2023-02-28T12:45:21.197Z,30.46
2023-02-28T12:48:04.158Z,30.35
2023-02-28T12:50:39.772Z,30.64
2023-02-28T12:53:12.279Z,30.82
2023-02-28T12:55:44.447Z,30.75
2023-02-28T12:58:23.001Z,31.02
2023-02-28T13:01:08.070Z,31.08
2023-02-28T13:04:01.368Z,31.02
2023-02-28T13:06:52.363Z,30.96
2023-02-28T13:09:20.840Z,31.00
2023-02-28T13:11:53.927Z,30.85
2023-02-28T13:14:28.644Z,30.71
2023-02-28T13:17:03.514Z,30.74
2023-02-28T13:20:01.936Z,30.67
2023-02-28T13:22:46.297Z,30.52
2023-02-28T13:25:50.473Z,30.40
2023-02-28T13:29:09.771Z,30.60
2023-02-28T13:32:07.191Z,31.05
2023-02-28T13:34:34.902Z,31.31
2023-02-28T13:37:32.689Z,31.34
2023-02-28T13:40:37.956Z,31.50
2023-02-28T13:43:06.439Z,31.55
2023-02-28T13:45:39.473Z,31.69
2023-02-28T13:48:28.160Z,31.67
2023-02-28T13:50:55.418Z,31.59
2023-02-28T13:53:58.161Z,32.33
2023-02-28T13:56:37.990Z,32.80
2023-02-28T13:59:18.859Z,32.92
2023-02-28T14:01:57.232Z,33.08
2023-02-28T14:05:02.503Z,33.37
2023-02-28T14:07:36.295Z,33.41
2023-02-28T14:10:09.611Z,34.03
2023-02-28T14:13:05.434Z,34.27
2023-02-28T14:15:52.421Z,34.01
2023-02-28T14:18:27.285Z,34.00
2023-02-28T14:21:26.946Z,34.12
2023-02-28T14:24:44.538Z,34.06
2023-02-28T14:27:30.553Z,34.33
2023-02-28T14:30:45.407Z,34.53
2023-02-28T14:33:29.588Z,35.06
2023-02-28T14:36:08.296Z,35.14
2023-02-28T14:38:39.072Z,35.34
2023-02-28T14:41:36.540Z,35.37
2023-02-28T14:44:21.219Z,35.51
2023-02-28T14:47:18.339Z,35.77
2023-02-28T14:50:07.165Z,35.92
2023-02-28T14:52:57.171Z,36.16
2023-02-28T14:55:36.156Z,36.21
2023-02-28T14:58:07.604Z,36.23
2023-02-28T15:00:38.745Z,36.58
2023-02-28T15:03:23.427Z,36.76
2023-02-28T15:06:19.134Z,37.23
2023-02-28T15:12:04.643Z,37.75
2023-02-28T15:14:48.819Z,37.79
2023-02-28T15:17:26.971Z,38.02
2023-02-28T15:19:56.336Z,38.28
2023-02-28T15:22:30.508Z,38.38
2023-02-28T15:24:58.198Z,38.70
2023-02-28T15:27:29.045Z,38.80
2023-02-28T15:30:18.138Z,39.14
2023-02-28T15:32:45.583Z,39.31
2023-02-28T15:35:35.228Z,39.72
2023-02-28T15:38:15.830Z,39.76
2023-02-28T15:40:58.556Z,40.36
2023-02-28T15:43:46.018Z,40.52
2023-02-28T15:46:33.798Z,40.64
2023-02-28T15:49:24.870Z,41.31
2023-02-28T15:52:06.047Z,41.51
2023-02-28T15:54:53.950Z,41.94
2023-02-28T15:57:33.460Z,42.30
2023-02-28T16:00:24.286Z,42.69
2023-02-28T16:03:27.273Z,42.93
2023-02-28T16:06:34.172Z,43.26
2023-02-28T16:09:01.868Z,43.56
2023-02-28T16:11:50.912Z,43.90
2023-02-28T16:14:32.040Z,44.20
2023-02-28T16:17:10.241Z,44.72
2023-02-28T16:19:57.759Z,44.77
2023-02-28T16:22:46.636Z,45.14
2023-02-28T16:25:38.482Z,45.36
2023-02-28T16:28:32.438Z,45.71
2023-02-28T16:31:20.956Z,46.05
2023-02-28T16:34:01.123Z,46.34
2023-02-28T16:36:50.883Z,46.55
2023-02-28T16:39:18.625Z,46.90
2023-02-28T16:41:58.960Z,47.09
2023-02-28T16:44:46.692Z,47.03
2023-02-28T16:47:34.743Z,47.27
2023-02-28T16:50:20.168Z,47.37
2023-02-28T16:52:47.830Z,47.64
2023-02-28T16:55:15.338Z,47.84
2023-02-28T16:57:55.911Z,48.11
2023-02-28T17:00:24.424Z,48.50
2023-02-28T17:02:51.956Z,48.47
2023-02-28T17:05:42.095Z,48.61
2023-02-28T17:08:23.074Z,48.91
2023-02-28T17:10:50.418Z,49.02
2023-02-28T17:13:28.324Z,49.23
2023-02-28T17:16:06.675Z,49.60
2023-02-28T17:18:44.443Z,49.79
2023-02-28T17:21:31.076Z,50.13
2023-02-28T17:24:28.931Z,50.33
2023-02-28T17:27:21.833Z,50.56
2023-02-28T17:30:18.897Z,50.73
2023-02-28T17:33:06.457Z,50.78
2023-02-28T17:35:44.670Z,50.83
2023-02-28T17:38:32.500Z,50.93
2023-02-28T17:41:10.952Z,50.99
2023-02-28T17:43:58.572Z,51.01
2023-02-28T17:46:47.365Z,51.14
2023-02-28T17:49:15.013Z,51.22
2023-02-28T17:52:02.860Z,51.22
2023-02-28T17:54:50.146Z,51.30
2023-02-28T17:57:38.196Z,51.09
2023-02-28T18:00:23.472Z,51.11
2023-02-28T18:03:12.122Z,51.28
2023-02-28T18:05:59.549Z,51.35
2023-02-28T18:08:47.615Z,51.40
2023-02-28T18:11:44.867Z,51.71
2023-02-28T18:14:32.420Z,51.86
2023-02-28T18:17:01.962Z,51.98
2023-02-28T18:19:50.039Z,52.04
2023-02-28T18:22:38.066Z,52.11
2023-02-28T18:25:26.325Z,52.23
2023-02-28T18:28:05.912Z,52.29
2023-02-28T18:30:53.393Z,52.36
2023-02-28T18:33:34.465Z,52.40
2023-02-28T18:36:02.022Z,52.46
2023-02-28T18:38:40.857Z,52.61
2023-02-28T18:41:29.344Z,52.67
2023-02-28T18:44:13.761Z,52.74
2023-02-28T18:47:01.616Z,52.98
2023-02-28T18:49:49.084Z,53.21
2023-02-28T18:52:38.430Z,53.32
2023-02-28T18:55:24.557Z,53.46
2023-02-28T18:58:13.045Z,53.72
2023-02-28T19:01:00.527Z,53.95
2023-02-28T19:03:49.735Z,54.18
2023-02-28T19:06:17.984Z,54.27
2023-02-28T19:09:06.849Z,54.39
2023-02-28T19:11:54.363Z,54.50
2023-02-28T19:14:32.391Z,54.78
2023-02-28T19:17:20.358Z,54.92
2023-02-28T19:19:51.113Z,54.94
2023-02-28T19:22:21.851Z,55.12
2023-02-28T19:25:11.142Z,55.32
2023-02-28T19:27:57.774Z,55.49
2023-02-28T19:30:35.773Z,55.87
2023-02-28T19:33:23.393Z,55.99
2023-02-28T19:36:04.310Z,56.28
2023-02-28T19:38:34.513Z,56.60
2023-02-28T19:41:22.561Z,56.74
2023-02-28T19:44:09.979Z,56.91
2023-02-28T19:46:57.772Z,57.00
2023-02-28T19:49:38.236Z,57.24
2023-02-28T19:52:13.245Z,57.25
2023-02-28T19:55:03.184Z,57.54
2023-02-28T19:57:39.403Z,57.58
2023-02-28T20:00:08.502Z,57.76
2023-02-28T20:02:56.295Z,57.70
2023-02-28T20:05:43.704Z,58.20
2023-02-28T20:08:14.106Z,58.26
2023-02-28T20:11:06.610Z,58.34
2023-02-28T20:13:43.609Z,58.23
2023-02-28T20:16:15.637Z,58.30
2023-02-28T20:19:03.756Z,58.16
2023-02-28T20:21:41.308Z,58.50
2023-02-28T20:24:18.818Z,58.51
2023-02-28T20:27:06.489Z,58.61
2023-02-28T20:29:38.611Z,58.78
2023-02-28T20:32:27.062Z,58.98
2023-02-28T20:35:14.535Z,58.97
2023-02-28T20:38:02.065Z,59.10
2023-02-28T20:40:49.862Z,59.30
2023-02-28T20:43:27.445Z,59.57
2023-02-28T20:46:07.184Z,59.95
2023-02-28T20:48:49.892Z,59.64
2023-02-28T20:51:40.506Z,59.96
2023-02-28T20:54:20.855Z,59.98
2023-02-28T20:57:08.661Z,60.06
2023-02-28T20:59:56.080Z,60.25
2023-02-28T21:02:35.606Z,60.47
2023-02-28T21:05:14.610Z,60.72
2023-02-28T21:08:02.624Z,60.53
2023-02-28T21:10:50.005Z,60.71
2023-02-28T21:13:17.839Z,60.79
2023-02-28T21:15:48.053Z,60.97
2023-02-28T21:18:15.802Z,61.02
2023-02-28T21:21:01.456Z,61.12
2023-02-28T21:23:49.522Z,61.40
2023-02-28T21:26:35.483Z,61.51
2023-02-28T21:29:22.974Z,61.58
2023-02-28T21:32:02.347Z,61.84
2023-02-28T21:34:32.124Z,62.01
2023-02-28T21:37:20.640Z,62.52
2023-02-28T21:40:01.989Z,62.46
2023-02-28T21:42:40.476Z,62.48
2023-02-28T21:45:29.382Z,62.50
2023-02-28T21:48:00.101Z,62.78
2023-02-28T21:50:27.575Z,62.92
2023-02-28T21:52:55.413Z,63.24
2023-02-28T21:55:38.268Z,63.37
2023-02-28T21:58:26.598Z,63.57
2023-02-28T22:01:16.236Z,63.71
2023-02-28T22:04:05.228Z,63.83
2023-02-28T22:06:35.745Z,63.88
2023-02-28T22:09:10.954Z,63.80
2023-02-28T22:11:51.890Z,64.12
2023-02-28T22:14:19.036Z,64.18
2023-02-28T22:16:55.107Z,64.49
2023-02-28T22:19:28.394Z,64.52
2023-02-28T22:22:16.787Z,64.59
2023-02-28T22:25:04.339Z,64.65
2023-02-28T22:27:51.721Z,64.47
2023-02-28T22:30:40.706Z,64.73
2023-02-28T22:33:29.243Z,64.69
2023-02-28T22:36:18.980Z,64.73
2023-02-28T22:39:07.277Z,64.79
2023-02-28T22:41:57.362Z,64.90
2023-02-28T22:44:46.843Z,64.97
2023-02-28T22:47:28.982Z,65.22
2023-02-28T22:50:07.261Z,65.29
2023-02-28T22:52:55.005Z,65.27
2023-02-28T22:55:42.275Z,65.26
2023-02-28T22:58:30.329Z,65.43
2023-02-28T23:01:13.737Z,65.38
2023-02-28T23:03:56.805Z,65.51
2023-02-28T23:06:45.885Z,65.67
2023-02-28T23:09:33.339Z,65.76
2023-02-28T23:12:20.813Z,65.84
2023-02-28T23:14:50.988Z,65.95
2023-02-28T23:17:38.344Z,66.11
2023-02-28T23:20:26.211Z,66.33
2023-02-28T23:23:13.827Z,66.19
2023-02-28T23:26:01.379Z,66.67
2023-02-28T23:28:39.672Z,66.31
2023-02-28T23:31:27.429Z,66.68
2023-02-28T23:34:00.714Z,66.53
2023-02-28T23:36:48.260Z,66.69
2023-02-28T23:39:31.280Z,66.83
2023-02-28T23:42:08.850Z,66.72
2023-02-28T23:44:56.182Z,66.84
2023-02-28T23:47:27.454Z,66.81
2023-02-28T23:49:58.010Z,67.04
2023-02-28T23:52:25.395Z,67.05
2023-02-28T23:55:13.928Z,67.36
2023-02-28T23:57:53.202Z,67.20
